Time;durP1;ratioP1;P1;durP2;ratioP2;P2;SDS_P1;SDS_P2;PMS_P1;PMS_P2;Temp;Humidity;BMP_temperature;BMP_pressure;BME280_temperature;BME280_humidity;BME280_pressure;Samples;Min_cycle;Max_cycle;Signal;HPM_P1;HPM_P2
2023/01/21 00:00:54;;;;;;;14.02;5.65;;;;;;;4.98;86.29;101863.84;4989238;28;20049;-67
2023/01/21 00:03:20;;;;;;;18.38;6.00;;;;;;;4.96;86.78;101863.31;4990697;28;21206;-67
2023/01/21 00:05:45;;;;;;;10.52;6.10;;;;;;;4.84;86.13;101865.59;4991160;28;20125;-67
2023/01/21 00:08:11;;;;;;;9.80;5.60;;;;;;;4.92;86.57;101878.31;4990796;28;20189;-66
2023/01/21 00:10:36;;;;;;;15.35;6.63;;;;;;;4.87;86.91;101875.72;4986115;28;20558;-67
2023/01/21 00:13:01;;;;;;;13.77;6.07;;;;;;;4.85;86.94;101872.56;4989161;28;20042;-67
2023/01/21 00:15:27;;;;;;;11.85;4.85;;;;;;;4.85;87.29;101877.09;4989388;28;20027;-67
2023/01/21 00:17:53;;;;;;;12.10;5.50;;;;;;;4.80;87.60;101885.94;4986934;28;20551;-67
2023/01/21 00:20:18;;;;;;;15.13;5.80;;;;;;;4.77;87.48;101891.84;4987000;28;20034;-67
2023/01/21 00:22:44;;;;;;;15.48;6.05;;;;;;;4.79;87.91;101887.03;4990050;28;20093;-67
2023/01/21 00:25:09;;;;;;;13.68;5.35;;;;;;;4.83;87.50;101896.06;4973724;28;20557;-67
2023/01/21 00:27:35;;;;;;;16.45;5.55;;;;;;;4.91;87.69;101884.75;4990591;28;20126;-67
2023/01/21 00:30:00;;;;;;;11.27;5.65;;;;;;;4.91;87.48;101897.28;4990570;28;20146;-67
2023/01/21 00:32:26;;;;;;;15.38;5.05;;;;;;;4.87;87.69;101902.41;4989540;28;20117;-67
2023/01/21 00:34:51;;;;;;;19.40;5.63;;;;;;;4.85;88.04;101904.56;4989400;28;20057;-67
2023/01/21 00:37:16;;;;;;;10.10;5.57;;;;;;;4.86;88.47;101906.16;4985123;28;20026;-67
2023/01/21 00:39:42;;;;;;;15.77;5.95;;;;;;;4.83;88.24;101912.06;4966655;28;20590;-67
2023/01/21 00:42:10;;;;;;;14.98;5.90;;;;;;;4.99;87.45;101915.34;4989245;28;20454;-67
2023/01/21 00:44:38;;;;;;;11.02;5.47;;;;;;;5.12;87.30;101920.78;4987928;28;20042;-67
2023/01/21 00:47:04;;;;;;;15.27;5.40;;;;;;;5.09;86.81;101923.22;4989836;28;20073;-67
2023/01/21 00:49:29;;;;;;;10.10;4.30;;;;;;;5.15;86.72;101927.44;4989790;28;20037;-67
2023/01/21 00:51:55;;;;;;;15.43;6.10;;;;;;;5.05;87.32;101933.66;4985550;28;20042;-67
2023/01/21 00:54:20;;;;;;;12.32;5.80;;;;;;;5.00;87.93;101924.94;4988625;28;20069;-67
2023/01/21 00:56:46;;;;;;;12.77;6.43;;;;;;;4.97;88.56;101936.19;4989140;28;20109;-67
2023/01/21 00:59:11;;;;;;;10.80;5.20;;;;;;;5.02;88.40;101942.25;4986833;28;20032;-67
2023/01/21 01:01:37;;;;;;;16.05;5.78;;;;;;;4.99;88.17;101942.03;4987894;28;20035;-67
2023/01/21 01:04:04;;;;;;;14.18;5.47;;;;;;;4.95;88.61;101954.34;4987126;28;20652;-67
2023/01/21 01:06:30;;;;;;;12.10;5.32;;;;;;;5.07;88.27;101949.41;4986696;28;20036;-67
2023/01/21 01:08:57;;;;;;;12.20;5.40;;;;;;;5.04;88.21;101961.44;4987850;28;20109;-67
2023/01/21 01:11:25;;;;;;;23.15;6.45;;;;;;;5.10;88.49;101973.66;4986182;28;20042;-67
2023/01/21 01:13:52;;;;;;;16.17;7.07;;;;;;;5.09;88.33;101971.28;4985389;28;20030;-67
2023/01/21 01:16:17;;;;;;;15.63;5.22;;;;;;;5.09;88.64;101968.63;4988689;28;20109;-67
2023/01/21 01:18:43;;;;;;;13.00;5.07;;;;;;;5.07;88.89;101968.88;4991030;28;20125;-67
2023/01/21 01:21:14;;;;;;;13.02;5.05;;;;;;;5.09;88.60;101963.28;4992791;28;20042;-67
2023/01/21 01:23:41;;;;;;;11.70;5.32;;;;;;;5.14;88.39;101979.22;4992793;28;20030;-67
2023/01/21 01:26:10;;;;;;;12.40;5.95;;;;;;;5.12;88.39;101973.38;4992633;28;20084;-67
2023/01/21 01:28:35;;;;;;;11.52;5.53;;;;;;;5.16;88.31;101975.19;4993056;28;20049;-67
2023/01/21 01:31:04;;;;;;;12.43;6.05;;;;;;;5.10;88.67;101981.66;4993122;28;20041;-67
2023/01/21 01:33:29;;;;;;;11.30;5.85;;;;;;;5.12;88.44;101978.72;4988950;28;20034;-67
2023/01/21 01:36:03;;;;;;;17.40;5.00;;;;;;;5.14;88.29;101987.22;4993397;28;20034;-67
2023/01/21 01:38:29;;;;;;;10.75;4.03;;;;;;;5.15;88.52;101988.84;4992667;28;20218;-67
2023/01/21 01:40:54;;;;;;;15.05;5.50;;;;;;;5.14;89.16;101993.38;4991935;28;20034;-67
2023/01/21 01:43:25;;;;;;;12.25;5.60;;;;;;;5.11;89.34;101998.50;4992445;28;20042;-67
2023/01/21 01:45:51;;;;;;;12.43;4.90;;;;;;;5.11;89.51;102001.16;4992725;28;20562;-67
2023/01/21 01:48:28;;;;;;;12.02;5.82;;;;;;;5.15;88.98;102000.28;4993886;28;20113;-67
2023/01/21 01:51:02;;;;;;;13.00;4.68;;;;;;;5.22;88.58;102000.75;4990946;28;20509;-67
2023/01/21 01:53:30;;;;;;;9.63;5.38;;;;;;;5.20;89.15;102013.59;4986839;28;20062;-67
2023/01/21 01:55:55;;;;;;;14.57;5.65;;;;;;;5.20;88.74;102008.25;4985446;28;20035;-67
2023/01/21 01:58:21;;;;;;;16.90;4.65;;;;;;;5.16;89.23;102015.25;4986518;28;20081;-67
2023/01/21 02:00:47;;;;;;;13.68;4.45;;;;;;;5.19;89.08;102017.31;4986854;28;20046;-67
2023/01/21 02:05:58;;;;;;;13.10;5.20;;;;;;;5.14;88.89;102024.59;4991443;28;20446;-67
2023/01/21 02:08:25;;;;;;;14.90;5.63;;;;;;;5.12;89.49;102022.22;4989131;28;20042;-67
2023/01/21 02:10:52;;;;;;;10.80;4.78;;;;;;;5.15;89.63;102031.53;4956129;28;20034;-67
2023/01/21 02:13:18;;;;;;;12.57;5.18;;;;;;;5.19;89.59;102027.19;4990068;28;20065;-67
2023/01/21 02:16:21;;;;;;;17.67;6.47;;;;;;;5.20;89.01;102034.94;4990951;28;20073;-67
2023/01/21 02:18:59;;;;;;;24.95;6.10;;;;;;;5.17;89.12;102032.84;4933741;28;20101;-67
2023/01/21 02:21:27;;;;;;;13.43;6.18;;;;;;;5.19;89.83;102036.00;4986764;28;20057;-67
2023/01/21 02:24:17;;;;;;;15.10;4.32;;;;;;;5.24;89.35;102029.84;4987673;28;20116;-67
2023/01/21 02:27:13;;;;;;;10.80;4.43;;;;;;;5.24;89.36;102037.84;4989552;28;20038;-67
2023/01/21 02:29:57;;;;;;;12.90;4.10;;;;;;;5.23;89.23;102037.03;4986860;28;20038;-68
2023/01/21 02:32:31;;;;;;;12.20;5.20;;;;;;;5.28;88.75;102047.66;4990112;28;20042;-67
2023/01/21 02:35:13;;;;;;;16.70;6.07;;;;;;;5.24;89.25;102051.19;4992978;28;20097;-67
2023/01/21 02:38:22;;;;;;;11.35;5.53;;;;;;;5.33;89.00;102044.94;4987896;28;20121;-67
2023/01/21 02:40:50;;;;;;;6.00;3.97;;;;;;;5.38;88.19;102044.09;4960343;28;20517;-67
2023/01/21 02:43:52;;;;;;;10.43;5.13;;;;;;;5.30;88.66;102045.50;4991937;28;20451;-67
2023/01/21 02:46:30;;;;;;;10.73;4.78;;;;;;;5.28;89.17;102053.00;4985332;28;20086;-67
2023/01/21 02:49:02;;;;;;;14.60;5.20;;;;;;;5.29;89.20;102056.47;4990088;28;20050;-67
2023/01/21 02:51:28;;;;;;;10.25;4.55;;;;;;;5.30;89.46;102052.72;4972958;28;20030;-68
2023/01/21 02:53:53;;;;;;;13.85;5.13;;;;;;;5.28;88.69;102061.00;4989232;28;20038;-67
2023/01/21 02:56:26;;;;;;;19.33;5.32;;;;;;;5.34;88.67;102070.56;4992380;28;20479;-68
2023/01/21 02:58:56;;;;;;;13.18;4.93;;;;;;;5.29;89.07;102070.63;4958748;28;20022;-68
2023/01/21 03:02:00;;;;;;;18.27;6.18;;;;;;;5.29;88.67;102069.81;4989771;28;20149;-67
2023/01/21 03:05:08;;;;;;;13.57;3.72;;;;;;;5.29;88.84;102061.81;4962476;28;20075;-68
2023/01/21 03:07:40;;;;;;;12.05;5.15;;;;;;;5.27;89.11;102078.13;4928484;29;20046;-68
2023/01/21 03:10:11;;;;;;;15.82;5.20;;;;;;;5.19;89.28;102065.38;4981855;28;20046;-67
2023/01/21 03:12:45;;;;;;;8.13;4.80;;;;;;;5.21;89.62;102073.09;4989485;28;20045;-67
2023/01/21 03:18:33;;;;;;;13.70;5.82;;;;;;;5.09;89.91;102073.50;4990923;28;20042;-67
2023/01/21 03:21:04;;;;;;;8.50;4.60;;;;;;;4.83;91.14;102066.81;4989237;28;20045;-67
2023/01/21 03:23:34;;;;;;;10.00;5.18;;;;;;;4.70;92.92;102075.50;4987924;28;20139;-67
2023/01/21 03:26:01;;;;;;;10.67;4.97;;;;;;;4.72;93.11;102065.34;4988468;28;20042;-67
2023/01/21 03:28:33;;;;;;;13.07;5.20;;;;;;;4.86;93.33;102066.25;4991234;28;20046;-67
2023/01/21 03:31:07;;;;;;;16.33;5.35;;;;;;;4.93;92.60;102080.06;4990988;28;20110;-67
2023/01/21 03:33:38;;;;;;;9.50;4.80;;;;;;;4.94;92.48;102073.66;4990447;28;20045;-67
2023/01/21 03:36:14;;;;;;;16.55;5.35;;;;;;;5.05;92.46;102077.81;4991730;28;20038;-67
2023/01/21 03:38:48;;;;;;;15.55;5.07;;;;;;;5.11;91.95;102086.59;4987234;28;20471;-67
2023/01/21 03:41:21;;;;;;;12.57;5.47;;;;;;;5.09;92.48;102081.50;4990858;28;20045;-67
2023/01/21 03:43:47;;;;;;;12.40;5.95;;;;;;;5.09;92.13;102089.50;4989951;28;20038;-67
2023/01/21 03:46:26;;;;;;;17.90;5.65;;;;;;;5.07;92.18;102093.56;4988765;28;20056;-67
2023/01/21 03:49:01;;;;;;;11.18;4.88;;;;;;;5.07;92.14;102089.00;4989848;28;20137;-67
2023/01/21 03:51:36;;;;;;;10.88;5.18;;;;;;;5.06;92.64;102100.75;4972353;28;20046;-67
2023/01/21 03:54:01;;;;;;;10.10;3.45;;;;;;;5.15;92.36;102099.06;4987783;28;20030;-67
2023/01/21 03:56:27;;;;;;;10.55;4.72;;;;;;;5.13;92.63;102103.13;4990357;28;20085;-66
2023/01/21 03:58:53;;;;;;;10.57;5.03;;;;;;;5.20;91.74;102101.69;4987069;28;20035;-67
2023/01/21 04:01:19;;;;;;;12.50;3.95;;;;;;;5.23;91.84;102103.78;4989528;28;20049;-67
2023/01/21 04:03:44;;;;;;;11.10;4.70;;;;;;;5.17;92.19;102104.91;4984964;28;20042;-67
2023/01/21 04:06:17;;;;;;;13.45;5.45;;;;;;;5.18;91.97;102098.50;4989584;28;20089;-67
2023/01/21 04:08:43;;;;;;;7.57;4.40;;;;;;;5.23;92.16;102109.13;4990348;28;20034;-67
2023/01/21 04:11:09;;;;;;;12.00;4.25;;;;;;;5.28;91.57;102109.06;4988440;28;20640;-67
2023/01/21 04:13:34;;;;;;;5.75;3.58;;;;;;;5.29;91.84;102116.00;4990799;28;20035;-67
2023/01/21 04:16:00;;;;;;;9.90;4.30;;;;;;;5.33;91.29;102113.56;4991409;28;20076;-67
2023/01/21 04:18:25;;;;;;;11.63;4.97;;;;;;;5.33;91.10;102118.91;4986722;28;20029;-66
2023/01/21 04:20:50;;;;;;;13.50;5.78;;;;;;;5.33;91.25;102122.38;4990261;28;20038;-67
2023/01/21 04:23:16;;;;;;;9.18;3.78;;;;;;;5.33;91.47;102116.25;4986642;28;20030;-67
2023/01/21 04:25:41;;;;;;;12.73;5.63;;;;;;;5.34;90.88;102120.53;4990198;28;20479;-67
2023/01/21 04:28:07;;;;;;;10.13;4.38;;;;;;;5.34;91.00;102121.28;4990691;28;20049;-67
2023/01/21 04:30:32;;;;;;;11.95;5.57;;;;;;;5.34;91.01;102121.28;4991040;28;20030;-67
2023/01/21 04:32:58;;;;;;;8.95;3.88;;;;;;;5.32;91.15;102122.69;4991761;28;20076;-67
2023/01/21 04:35:23;;;;;;;10.52;5.80;;;;;;;5.32;91.46;102120.78;4990104;28;20049;-67
2023/01/21 04:37:49;;;;;;;11.30;4.88;;;;;;;5.28;90.90;102117.06;4990973;28;20034;-67
2023/01/21 04:40:14;;;;;;;10.85;5.15;;;;;;;5.29;91.19;102118.69;4986077;28;20114;-66
2023/01/21 04:42:41;;;;;;;15.38;5.75;;;;;;;5.35;90.82;102122.91;4986912;28;20096;-67
2023/01/21 04:45:07;;;;;;;11.35;4.20;;;;;;;5.32;90.61;102131.47;4990348;28;20049;-67
2023/01/21 04:47:32;;;;;;;13.55;4.53;;;;;;;5.30;90.74;102130.94;4991518;28;20050;-67
2023/01/21 04:49:57;;;;;;;9.82;4.85;;;;;;;5.30;90.80;102132.84;4988825;28;20022;-67
2023/01/21 04:52:23;;;;;;;8.75;3.72;;;;;;;5.25;91.11;102136.34;4988859;28;20559;-67
2023/01/21 04:54:48;;;;;;;14.73;5.30;;;;;;;5.26;90.54;102137.94;4988890;28;20529;-67
2023/01/21 04:57:14;;;;;;;9.30;4.68;;;;;;;5.26;90.97;102150.50;4990576;28;20096;-67
2023/01/21 04:59:39;;;;;;;8.85;4.47;;;;;;;5.21;90.67;102148.66;4988916;28;20037;-67
2023/01/21 05:02:05;;;;;;;10.43;4.18;;;;;;;5.24;90.97;102155.31;4987012;28;20489;-66
2023/01/21 05:04:31;;;;;;;13.40;4.53;;;;;;;5.20;90.94;102157.78;4988375;28;20536;-67
2023/01/21 05:06:57;;;;;;;11.60;5.57;;;;;;;5.12;91.34;102155.69;4988850;28;20077;-67
2023/01/21 05:09:22;;;;;;;14.23;5.72;;;;;;;5.06;92.26;102156.81;4988883;28;20046;-67
2023/01/21 05:11:48;;;;;;;10.73;4.55;;;;;;;5.05;91.41;102163.22;4988490;28;20057;-67
2023/01/21 05:14:13;;;;;;;11.48;5.13;;;;;;;5.11;92.07;102170.09;4990198;28;20034;-67
2023/01/21 05:16:39;;;;;;;13.27;5.65;;;;;;;5.05;91.99;102183.81;4990583;28;20038;-67
2023/01/21 05:19:04;;;;;;;9.35;4.22;;;;;;;5.10;92.28;102181.06;4990065;28;20034;-67
2023/01/21 05:21:29;;;;;;;15.90;6.68;;;;;;;5.11;91.06;102180.78;4988569;28;20038;-67
2023/01/21 05:23:55;;;;;;;15.88;6.38;;;;;;;5.21;91.01;102186.03;4985953;28;20506;-67
2023/01/21 05:26:20;;;;;;;12.60;5.13;;;;;;;5.14;91.16;102180.25;4989622;28;20038;-67
2023/01/21 05:28:45;;;;;;;9.00;4.57;;;;;;;5.02;90.97;102203.03;4990274;28;20526;-67
2023/01/21 05:31:11;;;;;;;12.98;5.25;;;;;;;4.96;90.96;102199.59;4986801;28;20042;-66
2023/01/21 05:36:05;;;;;;;11.55;5.40;;;;;;;4.97;92.27;102200.41;4963913;28;20046;-70
2023/01/21 05:38:31;;;;;;;8.90;4.35;;;;;;;5.01;92.07;102201.44;4959143;28;20027;-70
2023/01/21 05:40:58;;;;;;;11.77;5.18;;;;;;;4.96;92.03;102210.28;4967153;28;20035;-70
2023/01/21 05:43:24;;;;;;;13.75;5.00;;;;;;;4.91;92.34;102207.66;4966971;28;20495;-70
2023/01/21 05:45:50;;;;;;;10.30;4.00;;;;;;;4.84;92.19;102212.50;4954821;28;20030;-70
2023/01/21 05:48:16;;;;;;;11.05;4.45;;;;;;;4.84;92.50;102209.81;4943125;28;20191;-70
2023/01/21 05:50:41;;;;;;;15.85;6.03;;;;;;;4.74;93.14;102212.59;4949546;28;20148;-70
2023/01/21 05:53:06;;;;;;;16.95;5.95;;;;;;;4.75;92.73;102208.81;4945422;28;20035;-70
2023/01/21 05:55:32;;;;;;;10.65;5.30;;;;;;;4.66;93.11;102215.84;4941795;28;20035;-70
2023/01/21 05:58:18;;;;;;;13.50;5.25;;;;;;;4.62;93.71;102233.47;4952811;28;20115;-70
2023/01/21 06:00:43;;;;;;;7.57;4.00;;;;;;;4.75;93.33;102235.50;4902803;29;20046;-71
2023/01/21 06:03:09;;;;;;;9.95;4.70;;;;;;;4.71;92.49;102239.78;4926158;29;20052;-70
2023/01/21 06:05:34;;;;;;;17.92;5.53;;;;;;;4.56;93.20;102242.56;4924920;29;20048;-70
2023/01/21 06:07:59;;;;;;;14.77;5.22;;;;;;;4.57;93.22;102246.81;4924705;29;20040;-70
2023/01/21 06:10:25;;;;;;;13.57;4.65;;;;;;;4.51;93.33;102245.22;4921686;29;20126;-70
2023/01/21 06:12:51;;;;;;;11.70;4.35;;;;;;;4.64;93.59;102249.19;4919625;29;20571;-70
2023/01/21 06:15:16;;;;;;;9.57;4.18;;;;;;;4.65;93.63;102259.56;4927603;29;20167;-70
2023/01/21 06:17:42;;;;;;;12.13;3.58;;;;;;;4.70;93.43;102248.88;4924541;29;20062;-70
2023/01/21 06:20:08;;;;;;;12.20;4.78;;;;;;;4.83;93.01;102252.81;4930343;29;20059;-70
2023/01/21 06:22:34;;;;;;;11.05;6.07;;;;;;;4.81;92.47;102263.75;4926727;29;20043;-70
2023/01/21 06:24:59;;;;;;;13.93;5.53;;;;;;;4.84;92.99;102254.41;4924754;29;20059;-70
2023/01/21 06:27:24;;;;;;;13.70;6.07;;;;;;;4.79;92.40;102260.56;4890579;29;20044;-70
2023/01/21 06:29:50;;;;;;;10.38;3.95;;;;;;;4.84;92.15;102270.44;4894122;29;20028;-70
2023/01/21 06:32:15;;;;;;;12.82;5.53;;;;;;;4.86;92.18;102270.94;4900798;29;20087;-70
2023/01/21 06:34:40;;;;;;;10.93;5.28;;;;;;;4.85;92.41;102272.81;4917246;29;20063;-70
2023/01/21 06:37:06;;;;;;;10.98;3.97;;;;;;;4.91;92.00;102274.38;4926557;29;20043;-70
2023/01/21 06:39:31;;;;;;;9.23;3.88;;;;;;;4.89;92.09;102281.06;4942517;28;20044;-70
2023/01/21 06:41:57;;;;;;;12.88;4.93;;;;;;;4.89;92.54;102283.72;4947467;28;20051;-70
2023/01/21 06:44:22;;;;;;;10.75;4.82;;;;;;;4.84;91.68;102287.22;4944272;28;20048;-70
2023/01/21 06:46:48;;;;;;;12.63;4.60;;;;;;;4.88;91.93;102282.91;4932557;28;20118;-70
2023/01/21 06:49:13;;;;;;;16.58;5.80;;;;;;;4.91;92.44;102284.25;4951258;29;20054;-70
2023/01/21 06:51:39;;;;;;;13.25;6.18;;;;;;;4.91;91.78;102282.38;4953088;28;20427;-70
2023/01/21 06:54:05;;;;;;;10.23;5.13;;;;;;;4.94;91.90;102295.16;4947847;28;20495;-70
2023/01/21 06:56:30;;;;;;;12.93;4.13;;;;;;;4.96;92.23;102284.19;4945558;28;20043;-70
2023/01/21 06:58:55;;;;;;;12.55;5.20;;;;;;;4.94;91.55;102289.81;4952577;28;20046;-70
2023/01/21 07:01:21;;;;;;;9.60;4.25;;;;;;;5.00;91.57;102295.94;4952362;28;20074;-70
2023/01/21 07:03:46;;;;;;;15.15;5.20;;;;;;;4.96;91.50;102306.38;4946942;28;20122;-70
2023/01/21 07:06:12;;;;;;;9.45;4.38;;;;;;;4.99;92.11;102315.69;4946281;28;20024;-70
2023/01/21 07:08:37;;;;;;;7.82;3.97;;;;;;;4.99;91.49;102319.16;4949789;28;20034;-70
2023/01/21 07:11:03;;;;;;;13.77;5.90;;;;;;;4.99;91.68;102315.69;4947300;28;20106;-70
2023/01/21 07:13:28;;;;;;;10.93;4.72;;;;;;;5.02;91.45;102320.47;4946025;28;20035;-70
2023/01/21 07:16:03;;;;;;;17.92;5.30;;;;;;;4.90;91.09;102328.81;4943100;28;20476;-70
2023/01/21 07:18:28;;;;;;;13.10;5.32;;;;;;;4.95;91.65;102328.00;4946524;28;20061;-70
2023/01/21 07:20:55;;;;;;;10.52;5.25;;;;;;;4.84;92.06;102329.13;4943720;28;20054;-70
2023/01/21 07:23:20;;;;;;;14.80;6.18;;;;;;;4.85;91.35;102328.03;4941731;28;20062;-70
2023/01/21 07:25:46;;;;;;;11.27;5.13;;;;;;;4.87;91.93;102329.38;4949963;28;20540;-70
2023/01/21 07:28:11;;;;;;;11.80;6.13;;;;;;;4.89;91.99;102331.75;4951815;28;20538;-70
2023/01/21 07:30:37;;;;;;;14.27;4.63;;;;;;;4.91;91.63;102341.09;4950007;28;20028;-71
2023/01/21 07:33:06;;;;;;;13.93;5.82;;;;;;;4.90;91.94;102344.81;4924236;29;20062;-70
2023/01/21 07:35:32;;;;;;;15.75;5.40;;;;;;;4.92;91.58;102345.34;4954197;28;20515;-70
2023/01/21 07:37:57;;;;;;;12.23;4.95;;;;;;;4.91;91.61;102345.63;4948841;28;20043;-70
2023/01/21 07:40:22;;;;;;;13.20;4.55;;;;;;;4.90;92.41;102357.34;4949583;28;20036;-70
2023/01/21 07:42:54;;;;;;;13.48;5.65;;;;;;;4.92;92.49;102358.69;4946591;28;20511;-70
2023/01/21 07:45:20;;;;;;;11.15;5.30;;;;;;;4.94;91.76;102355.75;4944287;29;20073;-70
2023/01/21 07:47:46;;;;;;;13.52;5.60;;;;;;;4.96;92.08;102359.75;4946475;28;20496;-70
2023/01/21 07:50:11;;;;;;;10.65;5.15;;;;;;;4.81;91.81;102359.81;4923988;29;20030;-70
2023/01/21 07:52:37;;;;;;;9.75;4.95;;;;;;;4.90;92.08;102358.16;4951997;28;20069;-70
2023/01/21 07:55:03;;;;;;;14.07;5.32;;;;;;;4.90;91.64;102366.16;4951074;28;20484;-70
2023/01/21 07:57:28;;;;;;;7.60;4.03;;;;;;;4.92;92.00;102368.56;4952870;28;20035;-70
2023/01/21 07:59:54;;;;;;;8.43;4.63;;;;;;;4.89;92.05;102372.59;4947377;28;20042;-71
2023/01/21 08:02:19;;;;;;;12.38;4.43;;;;;;;4.91;92.03;102367.78;4940016;28;20035;-70
2023/01/21 08:04:45;;;;;;;14.48;5.13;;;;;;;4.96;92.02;102369.59;4946052;28;20054;-70
2023/01/21 08:07:10;;;;;;;16.02;5.72;;;;;;;4.97;91.68;102368.56;4941172;29;20105;-70
2023/01/21 08:09:36;;;;;;;15.65;4.90;;;;;;;5.00;92.20;102379.47;4945421;28;20050;-71
2023/01/21 08:12:03;;;;;;;13.00;5.63;;;;;;;5.01;91.84;102369.59;4948268;28;20039;-70
2023/01/21 08:14:29;;;;;;;12.52;4.60;;;;;;;5.01;91.76;102378.41;4942250;28;20082;-70
2023/01/21 08:16:54;;;;;;;11.93;5.50;;;;;;;4.89;92.38;102379.78;4949907;28;20035;-70
2023/01/21 08:19:20;;;;;;;13.43;4.75;;;;;;;4.89;92.58;102369.13;4947851;28;20503;-70
2023/01/21 08:21:45;;;;;;;12.70;5.63;;;;;;;4.91;92.87;102377.66;4954102;28;20035;-71
2023/01/21 08:24:11;;;;;;;12.27;5.22;;;;;;;4.91;93.17;102381.13;4942872;28;20027;-70
2023/01/21 08:26:36;;;;;;;15.82;5.30;;;;;;;4.99;92.55;102391.25;4938651;28;20230;-70
2023/01/21 08:29:02;;;;;;;13.55;4.97;;;;;;;5.02;92.78;102392.53;4940136;28;20035;-70
2023/01/21 08:31:27;;;;;;;17.35;4.80;;;;;;;5.07;92.39;102404.00;4947686;28;20126;-70
2023/01/21 08:33:53;;;;;;;13.65;6.03;;;;;;;5.00;92.00;102397.34;4946845;28;20035;-70
2023/01/21 08:36:18;;;;;;;12.93;5.88;;;;;;;5.08;92.25;102402.94;4949586;28;20054;-70
2023/01/21 08:38:44;;;;;;;9.20;4.53;;;;;;;5.10;92.46;102402.66;4949487;28;20050;-70
2023/01/21 08:41:09;;;;;;;13.63;4.63;;;;;;;5.07;92.31;102411.22;4946175;28;20058;-70
2023/01/21 08:43:35;;;;;;;9.55;4.03;;;;;;;5.04;92.20;102417.09;4944496;28;20158;-70
2023/01/21 08:46:01;;;;;;;17.77;6.90;;;;;;;5.04;92.34;102419.75;4950704;28;20077;-70
2023/01/21 08:48:28;;;;;;;16.00;5.13;;;;;;;4.98;92.52;102429.66;4941615;28;20492;-71
2023/01/21 08:50:58;;;;;;;10.00;4.88;;;;;;;5.04;92.91;102427.78;4950219;28;20159;-70
2023/01/21 08:53:23;;;;;;;16.73;5.28;;;;;;;5.05;92.86;102435.50;4946380;28;20047;-70
2023/01/21 08:55:49;;;;;;;14.27;6.25;;;;;;;5.06;92.51;102438.97;4951097;28;20035;-70
2023/01/21 08:58:14;;;;;;;12.85;4.97;;;;;;;4.98;92.41;102432.34;4950710;28;20039;-70
2023/01/21 09:00:40;;;;;;;10.32;4.38;;;;;;;4.99;93.30;102439.28;4939145;28;20047;-70
2023/01/21 09:03:06;;;;;;;19.38;5.90;;;;;;;5.01;92.79;102445.16;4962646;28;20035;-70
2023/01/21 09:05:32;;;;;;;11.65;4.50;;;;;;;5.04;92.42;102446.47;4949263;28;20397;-71
2023/01/21 09:07:57;;;;;;;16.73;5.55;;;;;;;5.06;92.84;102461.13;4926265;29;20047;-70
2023/01/21 09:13:08;;;;;;;18.67;6.07;;;;;;;5.01;93.20;102465.69;4941834;29;20351;-70
2023/01/21 09:15:41;;;;;;;15.77;6.68;;;;;;;4.97;93.59;102465.44;4942938;28;21065;-70
2023/01/21 09:18:06;;;;;;;13.07;4.78;;;;;;;5.08;93.67;102472.34;4944565;28;20106;-69
2023/01/21 09:20:32;;;;;;;12.88;4.72;;;;;;;5.00;93.63;102472.09;4945551;28;20031;-70
2023/01/21 09:22:58;;;;;;;16.27;4.35;;;;;;;4.97;93.99;102465.44;4944492;28;20060;-70
2023/01/21 09:25:23;;;;;;;13.25;5.68;;;;;;;5.02;93.88;102477.97;4942880;28;20548;-70
2023/01/21 09:27:48;;;;;;;15.65;5.80;;;;;;;5.13;94.05;102474.97;4938800;28;20039;-70
2023/01/21 09:30:15;;;;;;;13.23;5.95;;;;;;;5.12;93.03;102481.41;4937198;28;20035;-70
2023/01/21 09:32:40;;;;;;;19.52;5.65;;;;;;;5.19;93.83;102486.44;4937360;28;20032;-70
2023/01/21 09:35:06;;;;;;;13.30;5.40;;;;;;;5.19;93.71;102491.78;4940690;28;20119;-70
2023/01/21 09:37:33;;;;;;;14.32;5.30;;;;;;;5.21;93.52;102493.13;4939682;28;20034;-70
2023/01/21 09:39:59;;;;;;;17.25;6.22;;;;;;;5.15;94.11;102496.09;4930936;28;20031;-70
2023/01/21 09:42:28;;;;;;;18.55;5.88;;;;;;;5.12;94.08;102497.44;4941528;28;20508;-70
2023/01/21 09:44:56;;;;;;;12.55;4.60;;;;;;;5.02;94.93;102493.97;4947488;28;20054;-70
2023/01/21 09:47:26;;;;;;;13.68;5.88;;;;;;;5.03;95.50;102499.03;4949887;28;20638;-70
2023/01/21 09:50:01;;;;;;;16.77;6.43;;;;;;;5.08;95.62;102503.56;4947280;28;20036;-70
2023/01/21 09:52:41;;;;;;;17.00;4.72;;;;;;;5.08;95.57;102504.38;4945904;28;20508;-70
2023/01/21 09:55:34;;;;;;;14.80;5.72;;;;;;;5.19;95.63;102499.78;4950808;29;20046;-71
2023/01/21 09:58:17;;;;;;;11.05;4.97;;;;;;;5.37;94.44;102505.34;4962514;28;20040;-70
2023/01/21 10:00:45;;;;;;;14.07;5.95;;;;;;;5.33;94.26;102504.28;4942724;29;20047;-70
2023/01/21 10:03:23;;;;;;;14.15;5.55;;;;;;;5.25;94.98;102506.72;4947280;29;20038;-71
2023/01/21 10:05:51;;;;;;;12.70;4.97;;;;;;;5.17;94.98;102510.75;4942976;28;20043;-71
2023/01/21 10:08:23;;;;;;;13.10;5.18;;;;;;;5.25;95.49;102509.38;4949025;29;20055;-71
2023/01/21 10:10:50;;;;;;;16.20;4.72;;;;;;;5.34;94.60;102508.53;4940109;28;20035;-70
2023/01/21 10:13:41;;;;;;;20.92;5.88;;;;;;;5.45;95.35;102507.44;4945257;28;20038;-70
2023/01/21 10:16:06;;;;;;;11.95;5.13;;;;;;;5.49;94.06;102510.38;4926336;29;20039;-70
2023/01/21 10:18:37;;;;;;;21.45;5.95;;;;;;;5.56;93.94;102508.19;4939287;28;20440;-70
2023/01/21 10:21:39;;;;;;;16.65;4.78;;;;;;;5.57;94.49;102514.34;4941887;29;20042;-70
2023/01/21 10:24:24;;;;;;;13.65;5.03;;;;;;;5.48;94.83;102512.22;4932290;28;20130;-70
2023/01/21 10:26:52;;;;;;;16.95;6.57;;;;;;;5.55;94.78;102495.91;4926151;28;20047;-70
2023/01/21 10:29:23;;;;;;;9.30;5.18;;;;;;;5.69;94.55;102499.56;4944969;28;20086;-70
2023/01/21 10:32:14;;;;;;;16.30;5.83;;;;;;;5.60;94.25;102495.06;4945147;28;20031;-71
2023/01/21 10:34:50;;;;;;;11.35;4.65;;;;;;;5.54;94.63;102499.63;4947312;28;20544;-70
2023/01/21 10:37:21;;;;;;;18.73;5.95;;;;;;;5.50;95.41;102495.91;4943798;28;20039;-71
2023/01/21 10:40:07;;;;;;;13.75;6.00;;;;;;;5.64;95.63;102488.09;4960362;28;20053;-71
2023/01/21 10:43:04;;;;;;;17.85;6.72;;;;;;;5.72;94.58;102482.97;4945944;28;20114;-71
2023/01/21 10:45:59;;;;;;;12.70;5.35;;;;;;;5.86;94.58;102488.53;4949799;28;20396;-71
2023/01/21 10:48:37;;;;;;;17.50;6.03;;;;;;;5.93;94.43;102481.00;4960283;28;20471;-70
2023/01/21 10:51:19;;;;;;;12.25;5.68;;;;;;;5.90;93.36;102482.38;4947867;28;20058;-71
2023/01/21 10:54:03;;;;;;;;;;;;;;;5.84;94.60;102483.47;4947807;28;20572;-70
2023/01/21 10:56:41;;;;;;;12.73;4.72;;;;;;;5.86;94.55;102485.88;4939720;28;19922;-70
2023/01/21 10:59:11;;;;;;;15.07;6.00;;;;;;;5.88;94.18;102486.41;4950025;28;20506;-70
2023/01/21 11:01:45;;;;;;;13.60;5.40;;;;;;;6.09;94.30;102485.16;4945317;28;20624;-70
2023/01/21 11:04:15;;;;;;;14.60;4.93;;;;;;;6.15;93.29;102486.72;4938754;28;20039;-70
2023/01/21 11:06:44;;;;;;;11.82;4.88;;;;;;;6.01;92.58;102478.53;4943218;28;20081;-70
2023/01/21 11:09:12;;;;;;;7.95;4.75;;;;;;;6.02;92.24;102471.34;4948434;28;20031;-70
2023/01/21 11:11:40;;;;;;;10.20;5.40;;;;;;;6.05;92.47;102466.22;4944197;28;20027;-70
2023/01/21 11:14:06;;;;;;;11.85;5.55;;;;;;;6.22;92.09;102479.19;4947268;28;20047;-70
2023/01/21 11:16:38;;;;;;;12.18;5.22;;;;;;;6.28;91.37;102486.09;4948531;28;20447;-70
2023/01/21 11:19:06;;;;;;;9.60;4.40;;;;;;;6.33;90.93;102478.81;4949493;28;20039;-70
2023/01/21 11:21:31;;;;;;;8.52;3.92;;;;;;;6.26;90.11;102486.38;4947424;28;20031;-70
2023/01/21 11:24:03;;;;;;;10.77;4.63;;;;;;;6.32;89.95;102479.91;4950179;28;20035;-70
2023/01/21 11:26:35;;;;;;;10.90;3.72;;;;;;;6.14;89.59;102487.78;4948604;28;20067;-70
2023/01/21 11:29:12;;;;;;;11.43;4.45;;;;;;;6.09;89.27;102471.81;4943105;28;20496;-69
2023/01/21 11:31:39;;;;;;;8.65;4.22;;;;;;;6.12;89.58;102473.91;4946114;28;20042;-70
2023/01/21 11:34:09;;;;;;;9.13;5.18;;;;;;;6.35;89.55;102467.81;4961562;28;20119;-70
2023/01/21 11:36:35;;;;;;;10.40;3.97;;;;;;;6.31;88.45;102461.44;4996051;23;20052;-67
2023/01/21 11:39:07;;;;;;;7.57;3.75;;;;;;;6.15;87.90;102460.78;5011545;28;20046;-67
2023/01/21 11:41:33;;;;;;;8.23;4.60;;;;;;;6.23;87.83;102464.75;5009208;28;20048;-67
2023/01/21 11:44:16;;;;;;;10.80;3.75;;;;;;;6.22;88.37;102461.25;5016096;28;20049;-66
2023/01/21 11:46:42;;;;;;;8.98;4.15;;;;;;;6.37;87.33;102460.31;5005493;28;20030;-67